Time;durP1;ratioP1;P1;durP2;ratioP2;P2;SDS_P1;SDS_P2;PMS_P1;PMS_P2;Temp;Humidity;BMP_temperature;BMP_pressure;BME280_temperature;BME280_humidity;BME280_pressure;Samples;Min_cycle;Max_cycle;Signal;HPM_P1;HPM_P2
2023/04/01 00:02:09;;;;;;;6.57;2.53;;;;;;;-150.27;100.00;61272.81;5224967;28;20049;-75
2023/04/01 00:04:41;;;;;;;7.13;1.90;;;;;;;-150.27;100.00;61272.81;5224508;28;20472;-75
2023/04/01 00:07:12;;;;;;;5.93;1.60;;;;;;;-150.27;100.00;61272.81;5223931;28;20028;-75
2023/04/01 00:09:43;;;;;;;4.23;1.50;;;;;;;-150.27;100.00;61272.81;5225287;28;20037;-75
2023/04/01 00:12:15;;;;;;;6.70;2.23;;;;;;;-150.27;100.00;61272.81;5224304;28;20503;-75
2023/04/01 00:14:46;;;;;;;5.97;1.90;;;;;;;-150.27;100.00;61272.81;5224981;28;20184;-75
2023/04/01 00:17:17;;;;;;;8.77;2.07;;;;;;;-150.27;100.00;61272.81;5224377;28;20038;-74
2023/04/01 00:19:49;;;;;;;5.47;1.93;;;;;;;-150.27;100.00;61272.81;5224517;28;20519;-75
2023/04/01 00:22:21;;;;;;;4.67;1.50;;;;;;;-150.27;100.00;61272.81;5224477;28;20071;-75
2023/04/01 00:24:53;;;;;;;3.70;1.70;;;;;;;-150.27;100.00;61272.81;5223543;28;20025;-75
2023/04/01 00:27:24;;;;;;;4.83;1.63;;;;;;;-150.27;100.00;61272.81;5225122;28;20719;-75
2023/04/01 00:29:56;;;;;;;5.67;1.43;;;;;;;-150.27;100.00;61272.81;5224708;28;20030;-74
2023/04/01 00:32:27;;;;;;;7.20;1.80;;;;;;;-150.27;100.00;61272.81;5224431;28;20084;-74
2023/04/01 00:35:01;;;;;;;5.40;1.57;;;;;;;-150.27;100.00;61272.81;5225039;28;20061;-74
2023/04/01 00:37:35;;;;;;;4.05;1.25;;;;;;;-150.27;100.00;61272.81;5224056;28;20439;-74
2023/04/01 00:40:11;;;;;;;5.32;1.60;;;;;;;-150.27;100.00;61272.81;5222756;28;20660;-74
2023/04/01 00:42:42;;;;;;;5.53;2.00;;;;;;;-150.27;100.00;61272.81;5224215;28;20104;-74
2023/04/01 00:45:43;;;;;;;5.37;1.63;;;;;;;-150.27;100.00;61272.81;5224137;28;20029;-75
2023/04/01 00:48:35;;;;;;;5.83;2.07;;;;;;;-150.27;100.00;61272.81;5219456;28;20509;-74
2023/04/01 00:51:11;;;;;;;4.57;1.93;;;;;;;-150.27;100.00;61272.81;5224510;28;20037;-74
2023/04/01 00:53:46;;;;;;;3.47;1.67;;;;;;;-150.27;100.00;61272.81;5224131;28;20047;-75
2023/04/01 00:56:22;;;;;;;4.00;2.00;;;;;;;-150.27;100.00;61272.81;5223874;28;20033;-75
2023/04/01 00:58:59;;;;;;;5.63;1.90;;;;;;;-150.27;100.00;61272.81;5224657;28;20033;-75
2023/04/01 01:01:32;;;;;;;3.57;2.00;;;;;;;-150.27;100.00;61272.81;5224210;28;20033;-75
2023/04/01 01:04:03;;;;;;;2.87;2.00;;;;;;;-150.27;100.00;61272.81;5219387;28;20068;-75
2023/04/01 01:06:55;;;;;;;4.90;2.13;;;;;;;-150.27;100.00;61272.81;5221701;28;20574;-75
2023/04/01 01:10:00;;;;;;;3.23;2.53;;;;;;;-150.27;100.00;61272.81;5223303;28;20033;-74
2023/04/01 01:12:55;;;;;;;4.75;2.10;;;;;;;-150.27;100.00;61272.81;5233559;28;20063;-75
2023/04/01 01:15:35;;;;;;;4.50;2.30;;;;;;;-150.27;100.00;61272.81;5232407;28;20500;-76
2023/04/01 01:18:19;;;;;;;3.50;2.17;;;;;;;-150.27;100.00;61272.81;5232035;28;20041;-76
2023/04/01 01:21:17;;;;;;;3.87;1.80;;;;;;;-150.27;100.00;61272.81;5232635;28;20396;-76
2023/04/01 01:24:13;;;;;;;5.30;1.90;;;;;;;-150.27;100.00;61272.81;5230510;28;20017;-76
2023/04/01 01:27:07;;;;;;;5.77;2.43;;;;;;;-150.27;100.00;61272.81;5223626;28;20493;-76
2023/04/01 01:29:57;;;;;;;2.67;2.47;;;;;;;-150.27;100.00;61272.81;5212718;28;20060;-76
2023/04/01 01:33:01;;;;;;;4.37;2.47;;;;;;;-150.27;100.00;61272.81;5211873;28;20028;-77
2023/04/01 01:35:46;;;;;;;3.57;2.47;;;;;;;-150.27;100.00;61272.81;5212791;28;20018;-76
2023/04/01 01:38:22;;;;;;;5.25;3.40;;;;;;;-150.27;100.00;61272.81;5230839;28;20417;-76
2023/04/01 01:40:57;;;;;;;3.63;2.87;;;;;;;-150.27;100.00;61272.81;5233355;28;20025;-74
2023/04/01 01:43:33;;;;;;;6.37;3.63;;;;;;;-150.27;100.00;61272.81;5233285;28;20029;-75
2023/04/01 01:46:13;;;;;;;4.20;3.80;;;;;;;-150.27;100.00;61272.81;5232448;28;20075;-76
2023/04/01 01:48:46;;;;;;;3.80;3.33;;;;;;;-150.27;100.00;61272.81;5233290;28;20033;-74
2023/04/01 01:51:21;;;;;;;3.90;3.50;;;;;;;-150.27;100.00;61272.81;5232924;28;20033;-76
2023/04/01 01:53:52;;;;;;;4.10;3.70;;;;;;;-150.27;100.00;61272.81;5232478;28;20060;-76
2023/04/01 01:56:27;;;;;;;4.10;3.67;;;;;;;-150.27;100.00;61272.81;5232895;28;20063;-76
2023/04/01 01:59:05;;;;;;;5.07;4.33;;;;;;;-150.27;100.00;61272.81;5232921;28;20633;-76
2023/04/01 02:01:44;;;;;;;5.00;4.53;;;;;;;-150.27;100.00;61272.81;5233055;28;20144;-76
2023/04/01 02:04:17;;;;;;;7.33;4.77;;;;;;;-150.27;100.00;61272.81;5230976;28;20025;-76
2023/04/01 02:07:24;;;;;;;5.37;4.87;;;;;;;-150.27;100.00;61272.81;5233221;28;20635;-76
2023/04/01 02:09:55;;;;;;;6.17;5.10;;;;;;;-150.27;100.00;61272.81;5229691;28;20026;-75
2023/04/01 02:12:28;;;;;;;6.70;5.43;;;;;;;-150.27;100.00;61272.81;5231523;28;20039;-75
2023/04/01 02:15:06;;;;;;;6.77;5.87;;;;;;;-150.27;100.00;61272.81;5231877;28;20148;-75
2023/04/01 02:17:42;;;;;;;8.57;6.17;;;;;;;-150.27;100.00;61272.81;5232906;28;20394;-74
2023/04/01 02:20:14;;;;;;;8.40;7.30;;;;;;;-150.27;100.00;61272.81;5230676;28;20028;-75
2023/04/01 02:23:07;;;;;;;7.53;6.23;;;;;;;-150.27;100.00;61272.81;5230713;28;20025;-75
2023/04/01 02:25:41;;;;;;;9.67;7.87;;;;;;;-150.27;100.00;61272.81;5233095;28;20036;-75
2023/04/01 02:28:14;;;;;;;9.40;8.40;;;;;;;-150.27;100.00;61272.81;5232313;28;20076;-75
2023/04/01 02:30:49;;;;;;;10.63;8.13;;;;;;;-150.27;100.00;61272.81;5232721;28;20022;-75
2023/04/01 02:33:21;;;;;;;10.43;8.53;;;;;;;-150.27;100.00;61272.81;5232672;28;20030;-75
2023/04/01 02:35:52;;;;;;;11.03;9.13;;;;;;;-150.27;100.00;61272.81;5232517;28;20045;-75
2023/04/01 02:38:24;;;;;;;12.63;9.73;;;;;;;-150.27;100.00;61272.81;5230416;28;20018;-75
2023/04/01 02:41:00;;;;;;;11.63;10.53;;;;;;;-150.27;100.00;61272.81;5233817;28;20026;-75
2023/04/01 02:43:32;;;;;;;12.40;10.17;;;;;;;-150.27;100.00;61272.81;5236820;28;20026;-74
2023/04/01 02:46:03;;;;;;;12.63;11.33;;;;;;;-150.27;100.00;61272.81;5235868;28;20033;-75
2023/04/01 02:48:34;;;;;;;12.87;10.17;;;;;;;-150.27;100.00;61272.81;5236694;28;20106;-74
2023/04/01 02:51:06;;;;;;;11.97;10.40;;;;;;;-150.27;100.00;61272.81;5236245;28;20022;-74
2023/04/01 02:53:37;;;;;;;12.90;11.57;;;;;;;-150.27;100.00;61272.81;5235540;28;20564;-75
2023/04/01 02:56:08;;;;;;;11.20;9.97;;;;;;;-150.27;100.00;61272.81;5236075;28;20029;-75
2023/04/01 02:58:40;;;;;;;15.97;11.10;;;;;;;-150.27;100.00;61272.81;5236263;28;20033;-75
2023/04/01 03:01:11;;;;;;;13.10;11.30;;;;;;;-150.27;100.00;61272.81;5236155;28;20025;-76
2023/04/01 03:03:42;;;;;;;12.83;11.30;;;;;;;-150.27;100.00;61272.81;5234986;28;20544;-76
2023/04/01 03:06:15;;;;;;;12.87;9.93;;;;;;;-150.27;100.00;61272.81;5235679;28;20021;-76
2023/04/01 03:08:46;;;;;;;12.50;10.07;;;;;;;-150.27;100.00;61272.81;5235673;28;20024;-76
2023/04/01 03:11:18;;;;;;;11.33;9.30;;;;;;;-150.27;100.00;61272.81;5236079;28;20021;-76
2023/04/01 03:13:49;;;;;;;12.20;10.20;;;;;;;-150.27;100.00;61272.81;5235629;28;20029;-76
2023/04/01 03:16:21;;;;;;;12.17;10.13;;;;;;;-150.27;100.00;61272.81;5235707;28;20057;-76
2023/04/01 03:18:53;;;;;;;14.43;10.77;;;;;;;-150.27;100.00;61272.81;5235765;28;20571;-76
2023/04/01 03:21:24;;;;;;;11.10;9.13;;;;;;;-150.27;100.00;61272.81;5234306;28;20025;-75
2023/04/01 03:23:56;;;;;;;10.47;9.37;;;;;;;-150.27;100.00;61272.81;5235028;28;20027;-76
2023/04/01 03:26:27;;;;;;;12.60;10.17;;;;;;;-150.27;100.00;61272.81;5235279;28;20022;-76
2023/04/01 03:28:59;;;;;;;12.13;10.20;;;;;;;-150.27;100.00;61272.81;5235538;28;20029;-75
2023/04/01 03:31:30;;;;;;;13.43;9.90;;;;;;;-150.27;100.00;61272.81;5235660;28;20026;-76
2023/04/01 03:34:01;;;;;;;10.53;9.03;;;;;;;-150.27;100.00;61272.81;5235577;28;20100;-76
2023/04/01 03:36:33;;;;;;;10.67;9.57;;;;;;;-150.27;100.00;61272.81;5235734;28;20078;-76
2023/04/01 03:39:04;;;;;;;15.97;10.00;;;;;;;-150.27;100.00;61272.81;5234241;28;20021;-76
2023/04/01 03:41:38;;;;;;;10.97;9.27;;;;;;;-150.27;100.00;61272.81;5234460;28;20033;-75
2023/04/01 03:44:09;;;;;;;12.40;9.90;;;;;;;-150.27;100.00;61272.81;5234645;28;20496;-75
2023/04/01 03:46:40;;;;;;;9.70;8.73;;;;;;;-150.27;100.00;61272.81;5235695;28;20029;-75
2023/04/01 03:49:12;;;;;;;10.03;8.77;;;;;;;-150.27;100.00;61272.81;5235303;28;20096;-75
2023/04/01 03:51:43;;;;;;;8.93;8.10;;;;;;;-150.27;100.00;61272.81;5235031;28;20025;-75
2023/04/01 03:54:15;;;;;;;10.23;9.27;;;;;;;-150.27;100.00;61272.81;5234372;28;20029;-75
2023/04/01 03:56:47;;;;;;;9.53;8.57;;;;;;;-150.27;100.00;61272.81;5233098;28;20021;-75
2023/04/01 03:59:18;;;;;;;8.83;7.93;;;;;;;-150.27;100.00;61272.81;5233791;28;20022;-75
2023/04/01 04:01:49;;;;;;;9.20;8.30;;;;;;;-150.27;100.00;61272.81;5235099;28;20416;-75
2023/04/01 04:04:21;;;;;;;8.80;8.00;;;;;;;-150.27;100.00;61272.81;5234532;28;20022;-75
2023/04/01 04:06:53;;;;;;;10.13;8.87;;;;;;;-150.27;100.00;61272.81;5233567;28;20025;-75
2023/04/01 04:09:25;;;;;;;10.10;8.87;;;;;;;-150.27;100.00;61272.81;5233518;28;20040;-77
2023/04/01 04:11:56;;;;;;;9.20;8.37;;;;;;;-150.27;100.00;61272.81;5234231;28;20358;-76
2023/04/01 04:14:27;;;;;;;8.93;8.13;;;;;;;-150.27;100.00;61272.81;5234448;28;20033;-76
2023/04/01 04:16:59;;;;;;;11.00;7.90;;;;;;;-150.27;100.00;61272.81;5229992;28;20022;-76
2023/04/01 04:19:33;;;;;;;7.27;6.37;;;;;;;-150.27;100.00;61272.81;5222762;28;20064;-77
2023/04/01 04:22:05;;;;;;;;;;;;;;;-150.27;100.00;61272.81;5218784;28;20029;-77
2023/04/01 04:24:37;;;;;;;6.57;5.97;;;;;;;-150.27;100.00;61272.81;5234117;28;20645;-76
2023/04/01 04:27:08;;;;;;;6.17;5.57;;;;;;;-150.27;100.00;61272.81;5233541;28;20578;-76
2023/04/01 04:29:39;;;;;;;8.67;6.67;;;;;;;-150.27;100.00;61272.81;5234307;28;20033;-76
2023/04/01 04:32:11;;;;;;;6.27;5.67;;;;;;;-150.27;100.00;61272.81;5227596;28;20061;-76
2023/04/01 04:34:42;;;;;;;6.67;6.07;;;;;;;-150.27;100.00;61272.81;5231543;28;20040;-76
2023/04/01 04:37:14;;;;;;;5.40;4.90;;;;;;;-150.27;100.00;61272.81;5234470;28;20040;-76
2023/04/01 04:39:45;;;;;;;5.10;4.60;;;;;;;-150.27;100.00;61272.81;5222743;28;20041;-76
2023/04/01 04:42:17;;;;;;;4.73;4.23;;;;;;;-150.27;100.00;61272.81;5233706;28;20044;-76
2023/04/01 04:44:48;;;;;;;5.03;4.47;;;;;;;-150.27;100.00;61272.81;5234147;28;20025;-76
2023/04/01 04:47:19;;;;;;;4.80;4.30;;;;;;;-150.27;100.00;61272.81;5234083;28;20041;-76
2023/04/01 04:49:51;;;;;;;4.30;3.53;;;;;;;-150.27;100.00;61272.81;5234093;28;20106;-76
2023/04/01 04:52:22;;;;;;;4.23;3.73;;;;;;;-150.27;100.00;61272.81;5232828;28;20025;-76
2023/04/01 04:54:53;;;;;;;3.80;3.37;;;;;;;-150.27;100.00;61272.81;5233308;28;20108;-76
2023/04/01 04:57:24;;;;;;;3.57;3.27;;;;;;;-150.27;100.00;61272.81;5233244;28;20022;-76
2023/04/01 04:59:56;;;;;;;4.33;3.57;;;;;;;-150.27;100.00;61272.81;5216805;28;20498;-75
2023/04/01 05:02:27;;;;;;;5.40;3.60;;;;;;;-150.27;100.00;61272.81;5223425;28;20060;-75
2023/04/01 05:04:59;;;;;;;3.87;3.43;;;;;;;-150.27;100.00;61272.81;5232903;28;20033;-76
2023/04/01 05:07:30;;;;;;;3.80;3.40;;;;;;;-150.27;100.00;61272.81;5233095;28;20080;-76
2023/04/01 05:10:01;;;;;;;4.87;3.60;;;;;;;-150.27;100.00;61272.81;5229535;28;20021;-76
2023/04/01 05:12:35;;;;;;;4.03;3.00;;;;;;;-150.27;100.00;61272.81;5233555;28;20029;-75
2023/04/01 05:15:08;;;;;;;3.88;2.95;;;;;;;-150.27;100.00;61272.81;5229587;28;20069;-76
2023/04/01 05:17:39;;;;;;;3.23;2.70;;;;;;;-150.27;100.00;61272.81;5233066;28;20036;-76
2023/04/01 05:20:12;;;;;;;3.20;2.83;;;;;;;-150.27;100.00;61272.81;5224656;28;20026;-76
2023/04/01 05:22:44;;;;;;;2.87;2.37;;;;;;;-150.27;100.00;61272.81;5211950;28;20040;-76
2023/04/01 05:25:15;;;;;;;3.03;2.73;;;;;;;-150.27;100.00;61272.81;5212254;28;20018;-76
2023/04/01 05:27:46;;;;;;;3.20;2.90;;;;;;;-150.27;100.00;61272.81;5221495;28;20029;-76
2023/04/01 05:30:18;;;;;;;3.63;2.73;;;;;;;-150.27;100.00;61272.81;5232723;28;20025;-76
2023/04/01 05:32:50;;;;;;;3.03;2.67;;;;;;;-150.27;100.00;61272.81;5233375;28;20469;-76
2023/04/01 05:35:21;;;;;;;2.93;2.63;;;;;;;-150.27;100.00;61272.81;5232808;28;20037;-76
2023/04/01 05:37:52;;;;;;;3.80;2.80;;;;;;;-150.27;100.00;61272.81;5231140;28;20030;-76
2023/04/01 05:40:24;;;;;;;3.07;2.77;;;;;;;-150.27;100.00;61272.81;5232040;28;20033;-76
2023/04/01 05:42:56;;;;;;;3.40;3.10;;;;;;;-150.27;100.00;61272.81;5231481;28;20503;-75
2023/04/01 05:45:27;;;;;;;3.40;3.10;;;;;;;-150.27;100.00;61272.81;5229958;28;20111;-76
2023/04/01 05:47:59;;;;;;;3.70;3.30;;;;;;;-150.27;100.00;61272.81;5231791;28;20044;-75
2023/04/01 05:50:30;;;;;;;4.87;3.50;;;;;;;-150.27;100.00;61272.81;5231828;28;20033;-76
2023/04/01 05:53:02;;;;;;;5.07;3.47;;;;;;;-150.27;100.00;61272.81;5212098;28;20022;-75
2023/04/01 05:55:36;;;;;;;5.27;4.00;;;;;;;-150.27;100.00;61272.81;5212797;28;20409;-76
2023/04/01 05:58:07;;;;;;;4.15;3.75;;;;;;;-150.27;100.00;61272.81;5212390;28;20105;-76
2023/04/01 06:00:38;;;;;;;4.30;3.90;;;;;;;-150.27;100.00;61272.81;5219122;28;20167;-76
2023/04/01 06:03:10;;;;;;;4.43;4.03;;;;;;;-150.27;100.00;61272.81;5232592;28;20427;-76
2023/04/01 06:05:43;;;;;;;6.10;4.73;;;;;;;-150.27;100.00;61272.81;5233186;28;20033;-76
2023/04/01 06:08:17;;;;;;;4.90;4.50;;;;;;;-150.27;100.00;61272.81;5231883;28;20119;-75
2023/04/01 06:10:48;;;;;;;5.15;4.55;;;;;;;-150.27;100.00;61272.81;5233385;28;20036;-76
2023/04/01 06:13:45;;;;;;;5.73;5.17;;;;;;;-150.27;100.00;61272.81;5232869;28;20026;-76
2023/04/01 06:16:44;;;;;;;5.33;4.83;;;;;;;-150.27;100.00;61272.81;5233387;28;20060;-76
2023/04/01 06:19:37;;;;;;;5.80;5.17;;;;;;;-150.27;100.00;61272.81;5235674;28;20362;-76
2023/04/01 06:22:51;;;;;;;5.97;5.37;;;;;;;-150.27;100.00;61272.81;5233994;28;20425;-75
2023/04/01 06:26:04;;;;;;;5.50;5.00;;;;;;;-150.27;100.00;61272.81;5233400;28;20144;-76
2023/04/01 06:28:45;;;;;;;7.77;5.10;;;;;;;-150.27;100.00;61272.81;5211445;28;20072;-76
2023/04/01 06:31:41;;;;;;;5.93;5.33;;;;;;;-150.27;100.00;61272.81;5233167;28;20095;-76
2023/04/01 06:34:28;;;;;;;6.20;5.60;;;;;;;-150.27;100.00;61272.81;5231600;28;20050;-76
2023/04/01 06:37:30;;;;;;;6.67;5.97;;;;;;;-150.27;100.00;61272.81;5234255;28;20044;-75
2023/04/01 06:40:39;;;;;;;6.20;5.60;;;;;;;-150.27;100.00;61272.81;5225055;28;20026;-75
2023/04/01 06:43:17;;;;;;;6.33;5.73;;;;;;;-150.27;100.00;61272.81;5215531;28;20030;-75
2023/04/01 06:45:58;;;;;;;9.20;7.63;;;;;;;-150.27;100.00;61272.81;5235536;28;20533;-75
2023/04/01 06:49:00;;;;;;;8.80;7.90;;;;;;;-150.27;100.00;61272.81;5235255;28;20030;-76
2023/04/01 06:52:13;;;;;;;8.63;7.83;;;;;;;-150.27;100.00;61272.81;5234386;28;20349;-76
2023/04/01 06:54:51;;;;;;;10.33;9.43;;;;;;;-150.27;100.00;61272.81;5222517;28;20030;-75
2023/04/01 06:57:38;;;;;;;9.80;8.50;;;;;;;-150.27;100.00;61272.81;5234979;28;20124;-75
2023/04/01 07:00:21;;;;;;;10.70;9.00;;;;;;;-150.27;100.00;61272.81;5233158;28;20061;-75
2023/04/01 07:03:23;;;;;;;23.80;9.97;;;;;;;-150.27;100.00;61272.81;5234897;28;20902;-76
2023/04/01 07:05:58;;;;;;;12.00;10.13;;;;;;;-150.27;100.00;61272.81;5228304;28;20036;-76
2023/04/01 07:08:34;;;;;;;11.57;10.43;;;;;;;-150.27;100.00;61272.81;5234097;28;20469;-76
2023/04/01 07:11:09;;;;;;;12.67;10.70;;;;;;;-150.27;100.00;61272.81;5250219;28;20025;-76
2023/04/01 07:13:54;;;;;;;12.47;11.17;;;;;;;-150.27;100.00;61272.81;5234845;28;20029;-76
2023/04/01 07:16:33;;;;;;;13.20;11.90;;;;;;;-150.27;100.00;61272.81;5193074;28;1217055;-76
2023/04/01 07:19:11;;;;;;;12.93;11.33;;;;;;;-150.27;100.00;61272.81;5234823;28;20069;-76
2023/04/01 07:22:07;;;;;;;14.70;13.23;;;;;;;-150.27;100.00;61272.81;5235764;28;20370;-76
2023/04/01 07:24:42;;;;;;;14.73;13.23;;;;;;;-150.27;100.00;61272.81;5223701;28;20042;-76
2023/04/01 07:27:14;;;;;;;14.90;13.40;;;;;;;-150.27;100.00;61272.81;5234870;28;20029;-76
2023/04/01 07:29:46;;;;;;;16.20;13.77;;;;;;;-150.27;100.00;61272.81;5235050;28;20094;-76
2023/04/01 07:32:43;;;;;;;16.03;14.33;;;;;;;-150.27;100.00;61272.81;5232273;28;20021;-77
2023/04/01 07:35:56;;;;;;;16.50;14.57;;;;;;;-150.27;100.00;61272.81;5233941;28;20696;-77
2023/04/01 07:38:46;;;;;;;19.00;14.50;;;;;;;-150.27;100.00;61272.81;5248996;28;20068;-77
2023/04/01 07:41:42;;;;;;;18.77;14.67;;;;;;;-150.27;100.00;61272.81;5234042;28;20539;-76
2023/04/01 07:44:56;;;;;;;17.20;13.60;;;;;;;-150.27;100.00;61272.81;5235215;28;20029;-76
2023/04/01 07:47:27;;;;;;;14.87;13.37;;;;;;;-150.27;100.00;61272.81;5235437;28;20114;-76
2023/04/01 07:50:05;;;;;;;18.37;15.00;;;;;;;-150.27;100.00;61272.81;5234723;28;20026;-76
2023/04/01 07:52:48;;;;;;;17.87;14.67;;;;;;;-150.27;100.00;61272.81;5253865;28;20036;-76
2023/04/01 07:55:28;;;;;;;16.47;14.20;;;;;;;-150.27;100.00;61272.81;5255629;28;20040;-76
2023/04/01 07:58:15;;;;;;;19.17;13.97;;;;;;;-150.27;100.00;61272.81;5255348;28;20029;-76
2023/04/01 08:01:00;;;;;;;17.00;14.47;;;;;;;-150.27;100.00;61272.81;5252107;28;20101;-77
2023/04/01 08:04:08;;;;;;;19.30;15.30;;;;;;;-150.27;100.00;61272.81;5234334;28;20083;-77
2023/04/01 08:06:59;;;;;;;16.33;13.73;;;;;;;-150.27;100.00;61272.81;5234160;28;20683;-76
2023/04/01 08:09:44;;;;;;;16.60;13.73;;;;;;;-150.27;100.00;61272.81;5232535;28;20037;-77
2023/04/01 08:12:30;;;;;;;18.43;15.73;;;;;;;-150.27;100.00;61272.81;5234991;28;20029;-76
2023/04/01 08:15:16;;;;;;;16.93;14.40;;;;;;;-150.27;100.00;61272.81;5233821;28;20041;-77
2023/04/01 08:18:00;;;;;;;17.73;13.47;;;;;;;-150.27;100.00;61272.81;5234691;28;20401;-75
2023/04/01 08:20:48;;;;;;;17.85;14.00;;;;;;;-150.27;100.00;61272.81;5233326;28;20041;-74
2023/04/01 08:23:24;;;;;;;23.20;15.53;;;;;;;-150.27;100.00;61272.81;5232507;28;20108;-75
2023/04/01 08:26:06;;;;;;;22.03;14.77;;;;;;;-150.27;100.00;61272.81;5231973;28;20056;-74
2023/04/01 08:28:44;;;;;;;22.83;15.63;;;;;;;-150.27;100.00;61272.81;5234251;28;20030;-75
2023/04/01 08:31:18;;;;;;;18.53;15.07;;;;;;;-150.27;100.00;61272.81;5232780;28;20057;-75
2023/04/01 08:33:53;;;;;;;22.00;14.83;;;;;;;-150.27;100.00;61272.81;5232894;28;20357;-75
2023/04/01 08:36:32;;;;;;;21.20;15.10;;;;;;;-150.27;100.00;61272.81;5232511;28;20030;-76
2023/04/01 08:39:15;;;;;;;19.53;15.37;;;;;;;-150.27;100.00;61272.81;5232302;28;20025;-76
2023/04/01 08:41:58;;;;;;;22.10;15.83;;;;;;;-150.27;100.00;61272.81;5221537;28;20052;-75
2023/04/01 08:44:35;;;;;;;22.97;17.23;;;;;;;-150.27;100.00;61272.81;5234162;28;20033;-76
2023/04/01 08:47:18;;;;;;;24.80;14.30;;;;;;;-150.27;100.00;61272.81;5233988;28;20037;-77
2023/04/01 08:50:27;;;;;;;23.17;16.00;;;;;;;-150.27;100.00;61272.81;5235393;28;20099;-77
2023/04/01 08:53:10;;;;;;;21.07;14.77;;;;;;;-150.27;100.00;61272.81;5233389;28;20532;-74
2023/04/01 08:56:00;;;;;;;15.90;12.77;;;;;;;-150.27;100.00;61272.81;5228406;28;20104;-75
2023/04/01 08:58:56;;;;;;;22.33;15.00;;;;;;;-150.27;100.00;61272.81;5213686;28;20057;-74
2023/04/01 09:02:18;;;;;;;18.90;13.43;;;;;;;-150.27;100.00;61272.81;5216684;28;20095;-73
2023/04/01 09:05:11;;;;;;;16.77;13.30;;;;;;;-150.27;100.00;61272.81;5185832;28;20113;-74
2023/04/01 09:07:54;;;;;;;16.73;13.50;;;;;;;-150.27;100.00;61272.81;5176387;28;20042;-73
2023/04/01 09:11:01;;;;;;;16.93;13.63;;;;;;;-150.27;100.00;61272.81;5231031;28;20604;-74
2023/04/01 09:13:56;;;;;;;12.03;10.70;;;;;;;-150.27;100.00;61272.81;5229596;28;20045;-74
2023/04/01 09:16:42;;;;;;;11.70;10.18;;;;;;;-150.27;100.00;61272.81;5198343;28;20045;-74
2023/04/01 09:19:44;;;;;;;13.43;10.03;;;;;;;-150.27;100.00;61272.81;5231190;28;20057;-74
2023/04/01 09:22:21;;;;;;;10.23;9.23;;;;;;;-150.27;100.00;61272.81;5228765;28;20037;-74
2023/04/01 09:25:24;;;;;;;14.83;10.60;;;;;;;-150.27;100.00;61272.81;5229207;28;20311;-74
2023/04/01 09:28:27;;;;;;;9.23;8.17;;;;;;;-150.27;100.00;61272.81;5216604;28;20331;-74
2023/04/01 09:31:01;;;;;;;9.27;8.33;;;;;;;-150.27;100.00;61272.81;5218048;28;20041;-74
2023/04/01 09:33:38;;;;;;;11.18;8.38;;;;;;;-150.27;100.00;61272.81;5218865;28;20132;-74
2023/04/01 09:36:12;;;;;;;10.97;9.57;;;;;;;-150.27;100.00;61272.81;5219074;28;20148;-74
2023/04/01 09:39:43;;;;;;;10.93;9.32;;;;;;;-150.27;100.00;61272.81;5217432;28;20036;-74
2023/04/01 09:42:52;;;;;;;9.73;7.87;;;;;;;-150.27;100.00;61272.81;5143539;28;20066;-74
2023/04/01 09:45:31;;;;;;;8.03;7.23;;;;;;;-150.27;100.00;61272.81;5218727;28;20492;-75
2023/04/01 09:48:35;;;;;;;8.50;7.63;;;;;;;-150.27;100.00;61272.81;5218889;28;20048;-75
2023/04/01 09:51:35;;;;;;;9.07;7.17;;;;;;;-150.27;100.00;61272.81;5219516;28;20029;-74
2023/04/01 09:54:15;;;;;;;9.97;7.30;;;;;;;-150.27;100.00;61272.81;5219583;28;20405;-74
2023/04/01 09:57:10;;;;;;;7.67;6.87;;;;;;;-150.27;100.00;61272.81;5219285;28;20133;-74
2023/04/01 10:00:07;;;;;;;;;;;;;;;-150.27;100.00;61272.81;5219529;28;20037;-74
2023/04/01 10:03:16;;;;;;;9.00;7.67;;;;;;;-150.27;100.00;61272.81;5219993;28;20105;-74
2023/04/01 10:06:02;;;;;;;10.70;7.80;;;;;;;-150.27;100.00;61272.81;5218513;28;20162;-75
2023/04/01 10:08:36;;;;;;;8.90;8.00;;;;;;;-150.27;100.00;61272.81;5218900;28;20056;-74
2023/04/01 10:11:34;;;;;;;10.45;8.55;;;;;;;-150.27;100.00;61272.81;5219414;28;20375;-73
2023/04/01 10:14:43;;;;;;;9.07;8.10;;;;;;;-150.27;100.00;61272.81;5218918;28;20499;-74
2023/04/01 10:17:39;;;;;;;11.30;8.77;;;;;;;-150.27;100.00;61272.81;5219687;28;20045;-74
2023/04/01 10:20:31;;;;;;;10.10;8.97;;;;;;;-150.27;100.00;61272.81;5216244;28;20029;-74
2023/04/01 10:23:11;;;;;;;10.00;8.53;;;;;;;-150.27;100.00;61272.81;5218655;28;20469;-75
2023/04/01 10:25:48;;;;;;;9.83;8.83;;;;;;;-150.27;100.00;61272.81;5222200;28;20102;-73
2023/04/01 10:28:41;;;;;;;9.07;8.17;;;;;;;-150.27;100.00;61272.81;5220495;28;20657;-74
2023/04/01 10:31:42;;;;;;;11.77;9.40;;;;;;;-150.27;100.00;61272.81;5221096;28;20025;-73
2023/04/01 10:34:31;;;;;;;11.70;8.97;;;;;;;-150.27;100.00;61272.81;5219093;28;20120;-73
2023/04/01 10:37:22;;;;;;;11.23;10.07;;;;;;;-150.27;100.00;61272.81;5217983;28;20056;-73
2023/04/01 10:40:22;;;;;;;15.47;11.20;;;;;;;-150.27;100.00;61272.81;5215596;28;20389;-74
2023/04/01 10:43:34;;;;;;;14.10;12.20;;;;;;;-150.27;100.00;61272.81;5217562;28;20033;-73
2023/04/01 10:46:18;;;;;;;13.47;10.43;;;;;;;-150.27;100.00;61272.81;5218439;28;20030;-73
2023/04/01 10:49:11;;;;;;;13.23;11.83;;;;;;;-150.27;100.00;61272.81;5219550;28;20079;-73
2023/04/01 10:52:07;;;;;;;14.60;11.77;;;;;;;-150.27;100.00;61272.81;5219297;28;20116;-74
2023/04/01 10:55:07;;;;;;;14.53;11.37;;;;;;;-150.27;100.00;61272.81;5222222;28;20065;-74
2023/04/01 10:58:37;;;;;;;12.67;11.37;;;;;;;-150.27;100.00;61272.81;5224133;28;20646;-74
2023/04/01 11:01:14;;;;;;;15.87;12.23;;;;;;;-150.27;100.00;61272.81;5187997;28;20121;-74
2023/04/01 11:04:16;;;;;;;12.50;11.23;;;;;;;-150.27;100.00;61272.81;5231206;28;20813;-74
2023/04/01 11:06:59;;;;;;;12.70;11.13;;;;;;;-150.27;100.00;61272.81;5230617;28;20425;-74
2023/04/01 11:10:02;;;;;;;13.13;11.83;;;;;;;-150.27;100.00;61272.81;5220158;28;20044;-73
2023/04/01 11:13:20;;;;;;;15.57;12.93;;;;;;;-150.27;100.00;61272.81;5235147;28;20029;-73
2023/04/01 11:16:26;;;;;;;14.67;11.60;;;;;;;-150.27;100.00;61272.81;5231990;28;20047;-73
2023/04/01 11:19:00;;;;;;;13.98;12.57;;;;;;;-150.27;100.00;61272.81;5232435;28;20150;-73
2023/04/01 11:21:59;;;;;;;14.02;11.55;;;;;;;-150.27;100.00;61272.81;5232138;28;20037;-74
2023/04/01 11:24:58;;;;;;;15.63;12.20;;;;;;;-150.27;100.00;61272.81;5232049;28;20022;-74
2023/04/01 11:27:57;;;;;;;13.53;11.53;;;;;;;-150.27;100.00;61272.81;5221244;28;20511;-74
2023/04/01 11:30:49;;;;;;;14.30;12.30;;;;;;;-150.27;100.00;61272.81;5221246;28;20033;-74
2023/04/01 11:33:35;;;;;;;12.67;10.20;;;;;;;-150.27;100.00;61272.81;5219741;28;20501;-74
2023/04/01 11:36:46;;;;;;;11.03;9.93;;;;;;;-150.27;100.00;61272.81;5218906;28;20051;-74
2023/04/01 11:39:47;;;;;;;12.73;10.00;;;;;;;-150.27;100.00;61272.81;5218941;28;20049;-74
2023/04/01 11:42:47;;;;;;;11.37;9.57;;;;;;;-150.27;100.00;61272.81;5213138;28;20052;-74
2023/04/01 11:45:41;;;;;;;12.23;11.03;;;;;;;-150.27;100.00;61272.81;5226214;28;20379;-74
2023/04/01 11:48:28;;;;;;;12.43;10.90;;;;;;;-150.27;100.00;61272.81;5231093;28;20021;-73
2023/04/01 11:51:50;;;;;;;12.00;10.47;;;;;;;-150.27;100.00;61272.81;5232849;28;20533;-73
2023/04/01 11:54:57;;;;;;;11.17;10.07;;;;;;;-150.27;100.00;61272.81;5209225;28;20026;-73
2023/04/01 11:57:43;;;;;;;11.60;9.47;;;;;;;-150.27;100.00;61272.81;5229848;28;20044;-74
2023/04/01 12:00:30;;;;;;;10.00;9.10;;;;;;;-150.27;100.00;61272.81;5211918;28;20109;-74
2023/04/01 12:03:26;;;;;;;9.70;8.70;;;;;;;-150.27;100.00;61272.81;5211922;28;20390;-74
2023/04/01 12:06:23;;;;;;;10.40;8.53;;;;;;;-150.27;100.00;61272.81;5211601;28;20030;-73
2023/04/01 12:09:08;;;;;;;9.60;8.67;;;;;;;-150.27;100.00;61272.81;5212549;28;20025;-73
2023/04/01 12:11:45;;;;;;;11.32;8.80;;;;;;;-150.27;100.00;61272.81;5212383;28;20033;-73
2023/04/01 12:14:48;;;;;;;7.87;7.07;;;;;;;-150.27;100.00;61272.81;5210271;28;20040;-74